createdAt,value
2023-03-21T00:02:04.764Z,7.93
2023-03-21T00:04:44.585Z,7.83
2023-03-21T00:07:21.772Z,8.97
2023-03-21T00:09:50.070Z,8.80
2023-03-21T00:12:21.205Z,9.27
2023-03-21T00:14:49.552Z,8.40
2023-03-21T00:17:18.049Z,8.63
2023-03-21T00:19:46.758Z,9.63
2023-03-21T00:22:14.961Z,10.00
2023-03-21T00:24:45.662Z,10.00
2023-03-21T00:27:41.362Z,8.10
2023-03-21T00:30:02.597Z,11.10
2023-03-21T00:32:30.760Z,9.93
2023-03-21T00:35:29.660Z,8.47
2023-03-21T00:37:48.456Z,9.70
2023-03-21T00:40:27.926Z,10.67
2023-03-21T00:42:57.330Z,9.07
2023-03-21T00:45:26.986Z,10.20
2023-03-21T00:47:55.276Z,10.50
2023-03-21T00:50:23.659Z,8.63
2023-03-21T00:52:52.045Z,8.30
2023-03-21T00:55:22.019Z,7.47
2023-03-21T00:58:01.160Z,7.47
2023-03-21T01:00:30.958Z,13.43
2023-03-21T01:03:21.472Z,11.40
2023-03-21T01:06:06.174Z,9.20
2023-03-21T01:08:50.613Z,12.90
2023-03-21T01:11:24.120Z,9.93
2023-03-21T01:13:59.832Z,10.90
2023-03-21T01:16:36.365Z,12.70
2023-03-21T01:19:09.316Z,8.87
2023-03-21T01:21:41.295Z,9.60
2023-03-21T01:24:10.123Z,11.77
2023-03-21T01:26:40.173Z,9.67
2023-03-21T01:29:08.614Z,11.53
2023-03-21T01:31:36.873Z,11.20
2023-03-21T01:34:05.264Z,10.07
2023-03-21T01:36:33.958Z,11.30
2023-03-21T01:39:02.500Z,10.63
2023-03-21T01:41:42.591Z,10.50
2023-03-21T01:44:17.005Z,8.70
2023-03-21T01:47:03.540Z,8.93
2023-03-21T01:49:41.055Z,10.87
2023-03-21T01:52:23.639Z,13.70
2023-03-21T01:54:58.448Z,11.90
2023-03-21T01:57:43.550Z,9.13
2023-03-21T02:00:18.644Z,12.00
2023-03-21T02:02:58.235Z,8.90
2023-03-21T02:05:35.326Z,12.97
2023-03-21T02:08:04.588Z,9.43
2023-03-21T02:10:34.377Z,9.47
2023-03-21T02:13:09.942Z,9.07
2023-03-21T02:15:43.079Z,9.70
2023-03-21T02:18:16.989Z,9.30
2023-03-21T02:21:26.926Z,7.67
2023-03-21T02:24:25.917Z,14.33
2023-03-21T02:27:06.806Z,9.90
2023-03-21T02:30:05.152Z,11.53
2023-03-21T02:32:51.801Z,7.43
2023-03-21T02:35:39.146Z,12.30
2023-03-21T02:38:14.126Z,11.37
2023-03-21T02:40:48.992Z,8.53
2023-03-21T02:43:24.022Z,11.77
2023-03-21T02:45:59.695Z,10.73
2023-03-21T02:48:44.791Z,10.00
2023-03-21T02:51:20.770Z,12.53
2023-03-21T02:54:20.049Z,10.17
2023-03-21T02:56:45.835Z,7.73
2023-03-21T02:59:16.481Z,11.27
2023-03-21T03:01:45.395Z,9.33
2023-03-21T03:04:22.458Z,10.33
2023-03-21T03:07:08.128Z,7.53
2023-03-21T03:09:50.554Z,9.60
2023-03-21T03:12:34.293Z,8.87
2023-03-21T03:15:18.400Z,12.17
2023-03-21T03:17:53.394Z,13.40
2023-03-21T03:20:39.330Z,11.33
2023-03-21T03:23:21.959Z,14.13
2023-03-21T03:25:58.428Z,9.40
2023-03-21T03:28:32.140Z,11.87
2023-03-21T03:31:09.734Z,10.60
2023-03-21T03:33:42.068Z,9.90
2023-03-21T03:36:30.400Z,8.97
2023-03-21T03:39:04.536Z,11.60
2023-03-21T03:42:04.206Z,11.47
2023-03-21T03:44:28.577Z,9.50
2023-03-21T03:47:01.734Z,10.13
2023-03-21T03:49:34.460Z,10.57
2023-03-21T03:52:08.033Z,10.50
2023-03-21T03:54:40.101Z,10.47
2023-03-21T03:57:12.103Z,11.47
2023-03-21T03:59:42.204Z,10.60
2023-03-21T04:02:12.164Z,12.03
2023-03-21T04:04:42.032Z,10.97
2023-03-21T04:07:11.773Z,10.97
2023-03-21T04:09:44.534Z,11.30
2023-03-21T04:12:16.217Z,10.43
2023-03-21T04:14:47.033Z,11.07
2023-03-21T04:17:16.040Z,12.43
2023-03-21T04:19:45.592Z,10.70
2023-03-21T04:22:14.206Z,8.90
2023-03-21T04:24:42.979Z,10.33
2023-03-21T04:27:11.585Z,12.87
2023-03-21T04:29:43.429Z,10.43
2023-03-21T04:32:17.512Z,13.03
2023-03-21T04:34:50.160Z,9.57
2023-03-21T04:37:19.319Z,9.63
2023-03-21T04:39:49.298Z,10.87
2023-03-21T04:42:20.437Z,11.07
2023-03-21T04:44:51.120Z,8.87
2023-03-21T04:47:22.199Z,12.37
2023-03-21T04:49:50.713Z,10.40
2023-03-21T04:52:18.943Z,9.97
2023-03-21T04:54:47.518Z,10.03
2023-03-21T04:57:16.812Z,11.77
2023-03-21T04:59:45.166Z,12.43
2023-03-21T05:02:15.561Z,11.33
2023-03-21T05:04:44.159Z,12.50
2023-03-21T05:07:14.819Z,11.50
2023-03-21T05:09:43.219Z,11.17
2023-03-21T05:12:11.481Z,10.77
2023-03-21T05:14:39.830Z,10.90
2023-03-21T05:17:07.968Z,12.47
2023-03-21T05:19:41.015Z,10.50
2023-03-21T05:22:12.179Z,12.77
2023-03-21T05:24:42.127Z,10.93
2023-03-21T05:27:10.860Z,11.70
2023-03-21T05:29:39.435Z,9.13
2023-03-21T05:32:07.588Z,13.40
2023-03-21T05:34:35.832Z,11.93
2023-03-21T05:37:06.729Z,9.53
2023-03-21T05:39:35.316Z,8.60
2023-03-21T05:42:03.759Z,9.63
2023-03-21T05:44:32.245Z,12.57
2023-03-21T05:47:00.463Z,11.13
2023-03-21T05:49:29.330Z,13.47
2023-03-21T05:51:57.632Z,9.27
2023-03-21T05:54:28.149Z,12.57
2023-03-21T05:56:59.452Z,11.63
2023-03-21T05:59:27.959Z,13.80
2023-03-21T06:01:59.294Z,9.80
2023-03-21T06:04:28.477Z,9.93
2023-03-21T06:06:56.896Z,11.27
2023-03-21T06:09:27.689Z,11.10
2023-03-21T06:11:57.870Z,9.23
2023-03-21T06:14:27.376Z,11.43
2023-03-21T06:16:56.277Z,10.43
2023-03-21T06:19:26.333Z,12.40
2023-03-21T06:21:54.435Z,12.00
2023-03-21T06:24:24.729Z,10.63
2023-03-21T06:26:54.298Z,12.50
2023-03-21T06:29:22.982Z,7.10
2023-03-21T06:31:51.471Z,10.53
2023-03-21T06:34:19.835Z,7.73
2023-03-21T06:36:48.943Z,11.47
2023-03-21T06:39:17.569Z,13.13
2023-03-21T06:41:46.224Z,8.63
2023-03-21T06:44:18.082Z,8.80
2023-03-21T06:46:46.346Z,9.67
2023-03-21T06:49:14.491Z,13.53
2023-03-21T06:51:42.859Z,13.20
2023-03-21T06:54:14.805Z,11.90
2023-03-21T06:56:42.913Z,13.50
2023-03-21T06:59:11.263Z,14.50
2023-03-21T07:01:41.297Z,10.67
2023-03-21T07:04:09.748Z,7.90
2023-03-21T07:06:38.542Z,10.77
2023-03-21T07:09:07.506Z,9.97
2023-03-21T07:11:37.961Z,9.50
2023-03-21T07:14:08.133Z,12.43
2023-03-21T07:16:36.702Z,9.27
2023-03-21T07:19:07.400Z,9.00
2023-03-21T07:21:35.881Z,14.17
2023-03-21T07:24:04.529Z,12.00
2023-03-21T07:26:32.813Z,13.97
2023-03-21T07:29:01.254Z,11.93
2023-03-21T07:31:29.968Z,10.13
2023-03-21T07:33:59.124Z,11.80
2023-03-21T07:36:28.689Z,9.80
2023-03-21T07:38:57.064Z,9.07
2023-03-21T07:41:25.810Z,13.10
2023-03-21T07:43:54.076Z,10.23
2023-03-21T07:46:22.414Z,12.57
2023-03-21T07:48:51.222Z,11.23
2023-03-21T07:51:20.940Z,11.27
2023-03-21T07:53:50.907Z,12.83
2023-03-21T07:56:18.984Z,11.07
2023-03-21T07:58:47.084Z,15.57
2023-03-21T08:01:15.721Z,21.37
2023-03-21T08:03:44.471Z,12.43
2023-03-21T08:06:13.273Z,12.87
2023-03-21T08:08:41.776Z,10.67
2023-03-21T08:11:12.909Z,10.83
2023-03-21T08:13:41.119Z,10.53
2023-03-21T08:16:10.762Z,11.87
2023-03-21T08:18:39.109Z,10.30
2023-03-21T08:21:09.798Z,11.00
2023-03-21T08:23:37.849Z,13.43
2023-03-21T08:26:06.485Z,13.13
2023-03-21T08:28:39.513Z,13.37
2023-03-21T08:31:11.407Z,14.10
2023-03-21T08:33:40.691Z,11.00
2023-03-21T08:36:10.403Z,12.03
2023-03-21T08:38:38.630Z,10.77
2023-03-21T08:41:07.426Z,10.73
2023-03-21T08:43:38.320Z,10.93
2023-03-21T08:46:07.463Z,14.03
2023-03-21T08:48:38.945Z,9.63
2023-03-21T08:51:08.688Z,15.80
2023-03-21T08:53:36.773Z,11.03
2023-03-21T08:56:05.225Z,10.07
2023-03-21T08:58:33.536Z,10.40
2023-03-21T09:01:04.981Z,12.80
2023-03-21T09:03:33.205Z,11.87
2023-03-21T09:06:03.438Z,11.30
2023-03-21T09:08:31.958Z,11.10
2023-03-21T09:11:00.312Z,13.23
2023-03-21T09:13:28.922Z,11.77
2023-03-21T09:15:58.348Z,11.10
2023-03-21T09:18:39.182Z,11.83
2023-03-21T09:21:13.176Z,9.70
2023-03-21T09:23:42.239Z,11.37
2023-03-21T09:26:11.049Z,13.60
2023-03-21T09:28:40.729Z,12.70
2023-03-21T09:31:12.456Z,9.93
2023-03-21T09:33:42.568Z,11.37
2023-03-21T09:36:14.554Z,13.67
2023-03-21T09:38:43.331Z,12.77
2023-03-21T09:41:28.209Z,13.80
2023-03-21T09:44:08.541Z,10.33
2023-03-21T09:46:45.069Z,12.83
2023-03-21T09:49:20.613Z,10.87
2023-03-21T09:51:53.436Z,12.33
2023-03-21T09:54:27.526Z,19.23
2023-03-21T09:56:59.730Z,12.13
2023-03-21T09:59:36.817Z,11.80
2023-03-21T10:02:12.590Z,13.13
2023-03-21T10:04:46.652Z,14.10
2023-03-21T10:07:18.329Z,13.13
2023-03-21T10:09:48.113Z,14.17
2023-03-21T10:12:22.444Z,12.87
2023-03-21T10:14:57.489Z,14.07
2023-03-21T10:17:33.674Z,11.10
2023-03-21T10:20:15.139Z,12.00
2023-03-21T10:22:48.796Z,12.43
2023-03-21T10:25:20.988Z,13.73
2023-03-21T10:27:52.222Z,13.77
2023-03-21T10:30:31.657Z,11.60
2023-03-21T10:33:06.028Z,12.60
2023-03-21T10:35:37.573Z,15.20
2023-03-21T10:38:07.669Z,12.20
2023-03-21T10:40:37.256Z,13.73
2023-03-21T10:43:37.967Z,13.97
2023-03-21T10:46:13.587Z,15.30
2023-03-21T10:48:46.913Z,15.47
2023-03-21T10:51:21.790Z,13.93
2023-03-21T10:53:55.130Z,12.27
2023-03-21T10:56:27.951Z,15.90
2023-03-21T10:59:00.360Z,15.03
2023-03-21T11:01:35.327Z,19.10
2023-03-21T11:04:09.926Z,12.80
2023-03-21T11:06:42.707Z,16.80
2023-03-21T11:09:18.083Z,15.53
2023-03-21T11:11:53.133Z,15.97
2023-03-21T11:14:34.632Z,15.97
2023-03-21T11:17:03.280Z,19.47
2023-03-21T11:19:33.749Z,15.13
2023-03-21T11:22:09.164Z,16.80
2023-03-21T11:24:37.615Z,14.93
2023-03-21T11:27:09.251Z,18.00
2023-03-21T11:29:40.744Z,14.00
2023-03-21T11:32:13.845Z,18.10
2023-03-21T11:34:49.979Z,17.83
2023-03-21T11:37:27.827Z,18.20
2023-03-21T11:40:00.642Z,16.50
2023-03-21T11:42:32.078Z,17.40
2023-03-21T11:45:05.021Z,17.87
2023-03-21T11:47:34.328Z,14.40
2023-03-21T11:50:05.356Z,15.97
2023-03-21T11:52:42.686Z,16.37
2023-03-21T11:55:37.336Z,15.87
2023-03-21T11:58:28.639Z,15.90
2023-03-21T12:01:05.153Z,21.67
2023-03-21T12:03:58.475Z,18.67
2023-03-21T12:06:33.845Z,12.93
2023-03-21T12:09:29.229Z,16.50
2023-03-21T12:12:07.619Z,103.63
2023-03-21T12:14:46.582Z,18.33
2023-03-21T12:17:32.011Z,17.80
2023-03-21T12:20:29.374Z,17.80
2023-03-21T12:23:12.783Z,15.93
2023-03-21T12:25:51.144Z,18.10
2023-03-21T12:28:33.525Z,15.87
2023-03-21T12:31:13.052Z,16.20
2023-03-21T12:33:57.111Z,15.90
2023-03-21T12:36:42.308Z,15.27
2023-03-21T12:39:21.999Z,17.67
2023-03-21T12:42:04.347Z,19.70
2023-03-21T12:44:37.959Z,15.57
2023-03-21T12:47:11.359Z,18.67
2023-03-21T12:49:44.797Z,18.30
2023-03-21T12:52:16.265Z,19.70
2023-03-21T12:54:50.411Z,16.07
2023-03-21T12:57:24.766Z,13.33
2023-03-21T13:00:00.843Z,16.37
2023-03-21T13:02:33.822Z,16.03
2023-03-21T13:05:08.540Z,14.63
2023-03-21T13:07:41.412Z,17.03
2023-03-21T13:10:17.544Z,16.17
2023-03-21T13:12:57.672Z,14.37
2023-03-21T13:15:40.503Z,14.90
2023-03-21T13:18:21.057Z,12.13
2023-03-21T13:20:52.068Z,10.80
2023-03-21T13:23:22.621Z,12.60
2023-03-21T13:25:56.130Z,13.13
2023-03-21T13:28:29.954Z,14.97
2023-03-21T13:31:22.303Z,10.37
2023-03-21T13:33:52.612Z,11.83
2023-03-21T13:36:26.286Z,12.20
2023-03-21T13:39:01.399Z,14.70
2023-03-21T13:41:34.401Z,9.77
2023-03-21T13:44:25.579Z,12.83
2023-03-21T13:46:56.779Z,12.90
2023-03-21T13:49:34.026Z,13.03
2023-03-21T13:52:04.107Z,10.17
2023-03-21T13:54:51.282Z,14.27
2023-03-21T13:57:38.474Z,13.67
2023-03-21T14:00:31.840Z,11.67
2023-03-21T14:03:03.853Z,14.03
2023-03-21T14:05:33.699Z,9.87
2023-03-21T14:08:15.263Z,12.57
2023-03-21T14:10:50.086Z,12.20
2023-03-21T14:13:22.401Z,11.27
2023-03-21T14:15:56.853Z,9.87
2023-03-21T14:18:41.140Z,14.07
2023-03-21T14:21:23.807Z,9.43
2023-03-21T14:23:58.245Z,7.50
2023-03-21T14:26:27.649Z,12.23
2023-03-21T14:28:56.142Z,7.77
2023-03-21T14:31:26.458Z,10.77
2023-03-21T14:33:58.984Z,11.20
2023-03-21T14:36:29.451Z,7.77
2023-03-21T14:39:05.788Z,8.03
2023-03-21T14:41:36.757Z,11.43
2023-03-21T14:44:25.438Z,9.27
2023-03-21T14:47:01.265Z,12.80
2023-03-21T14:49:31.440Z,12.43
2023-03-21T14:52:02.795Z,10.83
2023-03-21T14:54:32.850Z,11.60
2023-03-21T14:57:03.807Z,12.77
2023-03-21T14:59:36.079Z,10.97
2023-03-21T15:02:15.135Z,10.80
2023-03-21T15:04:45.497Z,12.13
2023-03-21T15:07:27.184Z,13.67
2023-03-21T15:09:57.185Z,14.13
2023-03-21T15:12:25.774Z,11.47
2023-03-21T15:14:54.964Z,15.80
2023-03-21T15:17:26.086Z,16.53
2023-03-21T15:19:55.714Z,15.60
2023-03-21T15:22:30.875Z,26.63
2023-03-21T15:25:03.556Z,19.40
2023-03-21T15:27:35.960Z,46.57
2023-03-21T15:30:06.290Z,31.23
2023-03-21T15:32:38.942Z,20.97
2023-03-21T15:35:14.873Z,25.33
2023-03-21T15:37:43.269Z,21.70
2023-03-21T15:40:21.219Z,19.17
2023-03-21T15:42:49.422Z,19.70
2023-03-21T15:45:22.822Z,20.90
2023-03-21T15:47:55.818Z,20.30
2023-03-21T15:50:34.471Z,22.53
2023-03-21T15:53:06.782Z,23.53
2023-03-21T15:55:45.954Z,23.53
2023-03-21T15:58:18.257Z,19.93
2023-03-21T16:00:54.905Z,18.03
2023-03-21T16:03:27.450Z,18.47
2023-03-21T16:06:17.602Z,17.43
2023-03-21T16:08:48.111Z,20.40
2023-03-21T16:11:20.206Z,17.00
2023-03-21T16:13:48.476Z,19.40
2023-03-21T16:16:19.212Z,19.30
2023-03-21T16:18:49.236Z,19.67
2023-03-21T16:21:19.564Z,18.13
2023-03-21T16:23:48.221Z,14.27
2023-03-21T16:26:19.088Z,14.07
2023-03-21T16:28:48.193Z,18.87
2023-03-21T16:31:19.278Z,16.80
2023-03-21T16:33:49.369Z,15.80
2023-03-21T16:36:19.984Z,16.43
2023-03-21T16:38:50.483Z,14.90
2023-03-21T16:41:19.040Z,16.17
2023-03-21T16:43:47.811Z,19.33
2023-03-21T16:46:17.702Z,16.73
2023-03-21T16:48:50.039Z,17.07
2023-03-21T16:53:51.796Z,18.20
2023-03-21T16:56:26.196Z,17.83
2023-03-21T16:58:55.958Z,13.33
2023-03-21T17:01:30.583Z,14.13
2023-03-21T17:04:00.893Z,15.53
2023-03-21T17:06:31.194Z,14.27
2023-03-21T17:09:01.756Z,15.37
2023-03-21T17:11:36.233Z,15.87
2023-03-21T17:14:04.769Z,15.33
2023-03-21T17:16:33.296Z,15.60
2023-03-21T17:19:04.482Z,25.70
2023-03-21T17:21:33.010Z,16.70
2023-03-21T17:24:02.377Z,15.87
2023-03-21T17:26:31.183Z,17.00
2023-03-21T17:28:59.935Z,16.83
2023-03-21T17:31:30.045Z,14.27
2023-03-21T17:33:58.305Z,18.97
2023-03-21T17:36:31.816Z,17.07
2023-03-21T17:39:01.948Z,19.80
2023-03-21T17:41:31.526Z,15.97
2023-03-21T17:44:00.017Z,16.17
2023-03-21T17:46:29.649Z,21.17
2023-03-21T17:48:57.884Z,23.67
2023-03-21T17:51:32.424Z,20.33
2023-03-21T17:54:01.291Z,18.93
2023-03-21T17:56:31.848Z,17.43
2023-03-21T17:59:01.913Z,17.80
2023-03-21T18:01:31.226Z,17.40
2023-03-21T18:04:04.933Z,17.90
2023-03-21T18:06:37.585Z,17.37
2023-03-21T18:09:11.919Z,15.93
2023-03-21T18:11:41.600Z,14.90
2023-03-21T18:14:17.259Z,18.73
2023-03-21T18:16:47.862Z,21.60
2023-03-21T18:19:16.271Z,17.20
2023-03-21T18:21:47.298Z,24.07
2023-03-21T18:24:16.659Z,23.43
2023-03-21T18:26:46.163Z,20.67
2023-03-21T18:32:10.305Z,20.10
2023-03-21T18:34:40.466Z,21.60
2023-03-21T18:37:15.854Z,20.60
2023-03-21T18:39:48.368Z,21.70
2023-03-21T18:42:17.911Z,23.00
2023-03-21T18:44:50.505Z,24.03
2023-03-21T18:47:19.200Z,22.67
2023-03-21T18:50:12.661Z,23.80
2023-03-21T18:52:37.930Z,24.20
2023-03-21T18:55:07.145Z,25.87
2023-03-21T18:57:38.260Z,20.67
2023-03-21T19:00:13.419Z,23.47
2023-03-21T19:02:46.266Z,25.03
2023-03-21T19:05:16.549Z,24.37
2023-03-21T19:07:48.172Z,25.57
2023-03-21T19:10:19.711Z,23.30
2023-03-21T19:12:50.372Z,26.43
2023-03-21T19:15:21.552Z,27.10
2023-03-21T19:20:43.494Z,29.57
2023-03-21T19:23:14.226Z,30.67
2023-03-21T19:25:43.965Z,27.73
2023-03-21T19:28:12.136Z,32.30
2023-03-21T19:30:48.971Z,30.43
2023-03-21T19:33:18.723Z,30.00
2023-03-21T19:35:46.943Z,28.33
2023-03-21T19:38:17.159Z,29.70
2023-03-21T19:40:46.630Z,28.47
2023-03-21T19:43:32.400Z,30.20
2023-03-21T19:46:02.116Z,30.90
2023-03-21T19:48:31.607Z,32.30
2023-03-21T19:53:52.750Z,31.27
2023-03-21T19:56:24.644Z,33.67
2023-03-21T19:58:55.127Z,29.80
2023-03-21T20:01:24.209Z,32.90
2023-03-21T20:03:53.138Z,36.23
2023-03-21T20:06:22.689Z,32.13
2023-03-21T20:11:42.893Z,38.47
2023-03-21T20:14:20.047Z,34.07
2023-03-21T20:16:49.397Z,35.57
2023-03-21T20:19:19.990Z,40.33
2023-03-21T20:21:55.388Z,38.70
2023-03-21T20:24:29.327Z,36.67
2023-03-21T20:26:57.756Z,33.53
2023-03-21T20:30:07.464Z,26.90
2023-03-21T20:32:14.691Z,34.40
2023-03-21T20:34:46.218Z,32.30
2023-03-21T20:37:15.121Z,37.90
2023-03-21T20:39:45.232Z,37.00
2023-03-21T20:42:13.566Z,35.13
2023-03-21T20:44:57.495Z,39.23
2023-03-21T20:47:28.018Z,42.53
2023-03-21T20:49:57.038Z,42.37
2023-03-21T20:53:00.884Z,42.10
2023-03-21T20:55:15.725Z,44.17
2023-03-21T20:57:44.462Z,44.20
2023-03-21T21:00:17.348Z,45.97
2023-03-21T21:02:47.724Z,44.30
2023-03-21T21:05:34.557Z,46.27
2023-03-21T21:08:05.613Z,47.67
2023-03-21T21:10:52.433Z,50.03
2023-03-21T21:13:24.157Z,48.17
2023-03-21T21:15:54.418Z,45.63
2023-03-21T21:18:23.122Z,46.63
2023-03-21T21:20:54.716Z,51.00
2023-03-21T21:23:25.493Z,56.37
2023-03-21T21:25:56.214Z,57.43
2023-03-21T21:28:29.048Z,57.83
2023-03-21T21:30:58.599Z,56.30
2023-03-21T21:33:29.461Z,53.47
2023-03-21T21:35:57.751Z,54.73
2023-03-21T21:38:26.872Z,58.60
2023-03-21T21:41:01.113Z,61.03
2023-03-21T21:43:30.194Z,59.60
2023-03-21T21:45:58.436Z,59.87
2023-03-21T21:48:27.616Z,61.07
2023-03-21T21:50:55.834Z,56.63
2023-03-21T21:53:24.445Z,53.23
2023-03-21T21:55:54.271Z,55.70
2023-03-21T21:58:26.482Z,50.10
2023-03-21T22:00:55.272Z,45.60
2023-03-21T22:03:26.508Z,54.40
2023-03-21T22:05:55.378Z,47.00
2023-03-21T22:08:24.927Z,52.37
2023-03-21T22:10:53.034Z,54.27
2023-03-21T22:13:21.432Z,52.60
2023-03-21T22:15:50.951Z,63.60
2023-03-21T22:18:19.452Z,58.70
2023-03-21T22:20:47.975Z,58.07
2023-03-21T22:23:16.559Z,64.20
2023-03-21T22:25:54.116Z,55.43
2023-03-21T22:28:25.848Z,54.47
2023-03-21T22:30:56.934Z,48.40
2023-03-21T22:33:27.527Z,52.90
2023-03-21T22:35:55.941Z,57.67
2023-03-21T22:38:25.462Z,55.30
2023-03-21T22:40:59.782Z,53.43
2023-03-21T22:43:28.862Z,57.67
2023-03-21T22:45:58.919Z,63.93
2023-03-21T22:48:30.318Z,59.23
2023-03-21T22:50:59.264Z,60.13
2023-03-21T22:53:27.541Z,58.67
2023-03-21T22:55:56.208Z,61.30
2023-03-21T22:58:25.276Z,61.30
2023-03-21T23:00:53.495Z,70.03
2023-03-21T23:03:25.332Z,65.13
2023-03-21T23:05:56.636Z,66.33
2023-03-21T23:08:24.742Z,64.53
2023-03-21T23:10:53.196Z,66.80
2023-03-21T23:13:23.783Z,67.97
2023-03-21T23:15:52.368Z,66.20
2023-03-21T23:18:20.845Z,67.63
2023-03-21T23:20:53.839Z,67.17
2023-03-21T23:23:22.213Z,68.37
2023-03-21T23:25:50.354Z,64.30
2023-03-21T23:28:19.174Z,70.13
2023-03-21T23:30:47.350Z,68.43
2023-03-21T23:33:15.855Z,66.53
2023-03-21T23:35:46.265Z,70.27
2023-03-21T23:38:17.377Z,72.20
2023-03-21T23:40:45.627Z,68.67
2023-03-21T23:43:13.978Z,76.77
2023-03-21T23:45:42.780Z,70.17
2023-03-21T23:48:11.004Z,77.50
2023-03-21T23:50:39.720Z,72.67
2023-03-21T23:53:08.227Z,83.83
2023-03-21T23:55:41.604Z,73.17
2023-03-21T23:58:10.959Z,72.47
